Terminal Aerodrome Forecast
Issued by NWS Austin/San Antonio, TX

Home | Current Version | Previous Version | Text Only | Print | Product List | Glossary On
Versions: 1 2 3 4 5 6 7 8 9 10 11 12 13 14 15 16 17 18 19 20 21 22 23 24
210
FTUS44 KEWX 171957 AAA
TAFSAT
TAF AMD
KSAT 171957Z 1720/1824 17005KT P6SM SCT010 BKN250
     FM180000 01003KT 5SM BR OVC007
     FM180500 VRB03KT 1SM BR OVC003
     FM181800 09004KT 4SM BR OVC005=

USA.gov is the U.S. government's official web portal to all federal, state and local government web resources and services.